TimeEST,TemperatureF,Dew PointF,Humidity,Sea Level PressureIn,VisibilityMPH,Wind Direction,Wind SpeedMPH,Gust SpeedMPH,PrecipitationIn,Events,Conditions,WindDirDegrees,DateUTC
12:53 AM,25.0,18.0,75,29.95,9.0,NNW,13.8,27.6,N/A,,Overcast,330,2013-03-05 05:53:00
2:53 AM,25.0,18.0,75,29.94,10.0,NNW,13.8,21.9,N/A,,Overcast,330,2013-03-05 07:53:00
3:53 AM,24.1,18.0,77,29.95,10.0,NW,16.1,24.2,N/A,,Overcast,320,2013-03-05 08:53:00
4:53 AM,24.1,18.0,77,29.97,10.0,NNW,17.3,25.3,N/A,,Overcast,330,2013-03-05 09:53:00
5:53 AM,24.1,18.0,77,29.97,10.0,NW,19.6,25.3,N/A,,Overcast,320,2013-03-05 10:53:00
6:53 AM,24.1,18.0,77,29.98,10.0,NW,17.3,28.8,N/A,,Mostly Cloudy,320,2013-03-05 11:53:00
8:53 AM,26.1,19.0,75,30.02,10.0,NNW,13.8,19.6,N/A,,Overcast,340,2013-03-05 13:53:00
9:53 AM,26.1,19.0,75,30.04,10.0,North,9.2,-,N/A,,Overcast,350,2013-03-05 14:53:00
10:27 AM,26.6,19.4,74,29.95,10.0,NNW,11.5,-,N/A,,Partly Cloudy,330,2013-03-05 15:27:00
10:53 AM,28.9,19.9,69,30.02,10.0,North,11.5,-,N/A,,Clear,360,2013-03-05 15:53:00
11:53 AM,32.0,21.0,64,30.01,10.0,North,6.9,-,N/A,,Clear,10,2013-03-05 16:53:00
12:53 PM,35.1,21.0,57,29.99,10.0,Calm,Calm,-,N/A,,Clear,0,2013-03-05 17:53:00
1:53 PM,37.9,21.9,53,29.99,10.0,Calm,Calm,-,N/A,,Clear,0,2013-03-05 18:53:00
2:53 PM,39.9,21.9,49,29.97,10.0,North,4.6,-,N/A,,Clear,360,2013-03-05 19:53:00
3:53 PM,39.0,21.9,50,29.96,10.0,ENE,5.8,-,N/A,,Clear,70,2013-03-05 20:53:00
4:53 PM,37.9,21.9,53,29.97,10.0,NE,5.8,-,N/A,,Clear,50,2013-03-05 21:53:00
5:53 PM,34.0,21.0,59,29.98,10.0,ENE,4.6,-,N/A,,Clear,60,2013-03-05 22:53:00
6:53 PM,32.0,21.0,64,30.00,10.0,NE,4.6,-,N/A,,Clear,50,2013-03-05 23:53:00
7:53 PM,32.0,19.9,61,29.99,10.0,East,4.6,-,N/A,,Clear,80,2013-03-06 00:53:00
8:53 PM,32.0,21.9,66,29.98,10.0,East,9.2,-,N/A,,Clear,100,2013-03-06 01:53:00
9:53 PM,30.9,21.9,69,29.98,10.0,East,8.1,-,N/A,,Mostly Cloudy,100,2013-03-06 02:53:00
10:53 PM,30.0,21.9,72,29.96,10.0,East,9.2,-,N/A,,Overcast,100,2013-03-06 03:53:00
11:53 PM,30.0,21.9,72,29.94,10.0,East,8.1,-,N/A,,Overcast,100,2013-03-06 04:53:00